createdAt,value
2022-08-05T00:00:17.370Z,95072.20
2022-08-05T00:02:50.894Z,95070.60
2022-08-05T00:06:02.524Z,95061.20
2022-08-05T00:08:34.465Z,95061.80
2022-08-05T00:11:01.310Z,95065.60
2022-08-05T00:13:38.954Z,95060.20
2022-08-05T00:16:10.863Z,95054.40
2022-08-05T00:18:45.577Z,95059.40
2022-08-05T00:21:14.778Z,95059.20
2022-08-05T00:23:46.702Z,95055.20
2022-08-05T00:26:22.397Z,95056.60
2022-08-05T00:28:50.579Z,95052.60
2022-08-05T00:31:53.934Z,95049.40
2022-08-05T00:34:56.994Z,95049.00
2022-08-05T00:37:13.150Z,95043.00
2022-08-05T00:39:41.625Z,95039.40
2022-08-05T00:42:11.338Z,95038.80
2022-08-05T00:44:57.996Z,95038.60
2022-08-05T00:47:24.657Z,95039.40
2022-08-05T00:49:51.913Z,95040.40
2022-08-05T00:52:28.671Z,95043.80
2022-08-05T00:54:56.179Z,95042.00
2022-08-05T00:57:25.240Z,95040.00
2022-08-05T00:59:58.196Z,95045.00
2022-08-05T01:02:25.041Z,95038.60
2022-08-05T01:04:51.712Z,95039.40
2022-08-05T01:07:18.531Z,95039.20
2022-08-05T01:09:45.217Z,95038.80
2022-08-05T01:12:23.274Z,95035.40
2022-08-05T01:15:06.631Z,95038.60
2022-08-05T01:18:12.375Z,95038.60
2022-08-05T01:21:04.394Z,95038.80
2022-08-05T01:24:03.316Z,95036.80
2022-08-05T01:26:56.009Z,95039.60
2022-08-05T01:29:40.836Z,95043.40
2022-08-05T01:32:18.705Z,95039.20
2022-08-05T01:35:04.294Z,95036.00
2022-08-05T01:37:53.228Z,95032.60
2022-08-05T01:40:28.910Z,95033.20
2022-08-05T01:42:58.095Z,95029.00
2022-08-05T01:45:28.072Z,95029.20
2022-08-05T01:48:03.187Z,95033.40
2022-08-05T01:50:40.876Z,95034.40
2022-08-05T01:53:54.538Z,95032.80
2022-08-05T01:56:11.566Z,95030.60
2022-08-05T01:58:44.911Z,95034.40
2022-08-05T02:01:24.648Z,95034.40
2022-08-05T02:03:56.780Z,95031.20
2022-08-05T02:06:37.739Z,95031.60
2022-08-05T02:09:07.148Z,95035.20
2022-08-05T02:12:10.149Z,95034.00
2022-08-05T02:14:55.946Z,95034.40
2022-08-05T02:18:32.403Z,95035.20
2022-08-05T02:20:25.472Z,95039.60
2022-08-05T02:23:03.624Z,95037.40
2022-08-05T02:25:35.920Z,95034.00
2022-08-05T02:28:28.486Z,95036.00
2022-08-05T02:31:04.161Z,95037.20
2022-08-05T02:33:38.904Z,95030.80
2022-08-05T02:36:13.320Z,95032.00
2022-08-05T02:38:53.669Z,95027.80
2022-08-05T02:41:28.304Z,95030.60
2022-08-05T02:44:13.166Z,95033.80
2022-08-05T02:46:58.637Z,95035.00
2022-08-05T02:49:35.908Z,95035.60
2022-08-05T02:52:09.428Z,95028.60
2022-08-05T02:54:41.210Z,95032.40
2022-08-05T02:58:10.279Z,95035.60
2022-08-05T03:00:02.111Z,95034.60
2022-08-05T03:02:35.079Z,95030.60
2022-08-05T03:05:04.136Z,95030.00
2022-08-05T03:08:00.979Z,95030.00
2022-08-05T03:10:24.399Z,95024.80
2022-08-05T03:12:52.636Z,95024.00
2022-08-05T03:15:20.487Z,95019.00
2022-08-05T03:17:47.217Z,95020.80
2022-08-05T03:20:14.010Z,95019.20
2022-08-05T03:22:44.059Z,95020.40
2022-08-05T03:25:32.512Z,95018.80
2022-08-05T03:28:03.114Z,95016.80
2022-08-05T03:30:34.755Z,95019.60
2022-08-05T03:33:03.455Z,95017.20
2022-08-05T03:35:34.046Z,95015.20
2022-08-05T03:38:08.577Z,95017.00
2022-08-05T03:40:35.785Z,95017.00
2022-08-05T03:43:58.241Z,95015.40
2022-08-05T03:45:57.386Z,95014.40
2022-08-05T03:48:28.165Z,95012.60
2022-08-05T03:52:37.589Z,95010.80
2022-08-05T03:55:52.518Z,95014.60
2022-08-05T03:57:19.041Z,95012.00
2022-08-05T03:59:55.465Z,95011.00
2022-08-05T04:02:37.648Z,95009.40
2022-08-05T04:05:10.136Z,95012.60
2022-08-05T04:07:57.338Z,95012.40
2022-08-05T04:10:33.354Z,95013.00
2022-08-05T04:13:07.284Z,95012.40
2022-08-05T04:15:36.116Z,95015.20
2022-08-05T04:18:09.847Z,95013.80
2022-08-05T04:20:41.235Z,95014.40
2022-08-05T04:23:12.572Z,95017.60
2022-08-05T04:26:00.413Z,95021.20
2022-08-05T04:28:30.602Z,95029.00
2022-08-05T04:30:59.052Z,95046.60
2022-08-05T04:34:17.991Z,95075.40
2022-08-05T04:36:45.949Z,95073.40
2022-08-05T04:39:02.912Z,95074.40
2022-08-05T04:41:36.710Z,95078.20
2022-08-05T04:44:09.434Z,95072.20
2022-08-05T04:46:38.265Z,95074.80
2022-08-05T04:49:14.698Z,95079.20
2022-08-05T04:51:44.130Z,95082.40
2022-08-05T04:54:11.990Z,95075.60
2022-08-05T04:56:40.045Z,95081.00
2022-08-05T04:59:21.886Z,95077.40
2022-08-05T05:02:35.222Z,95080.60
2022-08-05T05:04:47.505Z,95081.00
2022-08-05T05:07:17.651Z,95077.80
2022-08-05T05:09:45.618Z,95078.40
2022-08-05T05:12:12.553Z,95079.40
2022-08-05T05:14:49.130Z,95081.80
2022-08-05T05:17:22.808Z,95080.80
2022-08-05T05:19:54.994Z,95090.00
2022-08-05T05:22:26.160Z,95087.00
2022-08-05T05:24:59.878Z,95089.80
2022-08-05T05:27:41.819Z,95086.80
2022-08-05T05:30:31.463Z,95090.80
2022-08-05T05:33:15.823Z,95084.20
2022-08-05T05:35:47.913Z,95084.40
2022-08-05T05:38:22.482Z,95088.40
2022-08-05T05:40:57.307Z,95091.60
2022-08-05T05:43:57.084Z,95093.80
2022-08-05T05:46:17.845Z,95094.80
2022-08-05T05:48:48.227Z,95101.40
2022-08-05T05:51:21.030Z,95096.80
2022-08-05T05:53:57.613Z,95093.60
2022-08-05T05:56:34.552Z,95095.00
2022-08-05T05:59:05.500Z,95096.40
2022-08-05T06:01:39.743Z,95093.40
2022-08-05T06:04:14.326Z,95100.40
2022-08-05T06:06:47.400Z,95095.80
2022-08-05T06:09:17.419Z,95096.40
2022-08-05T06:12:01.120Z,95101.00
2022-08-05T06:14:31.104Z,95101.80
2022-08-05T06:16:58.898Z,95100.60
2022-08-05T06:19:35.415Z,95089.60
2022-08-05T06:22:07.841Z,95082.40
2022-08-05T06:24:42.070Z,95079.60
2022-08-05T06:27:17.258Z,95078.80
2022-08-05T06:30:17.828Z,95077.00
2022-08-05T06:32:48.379Z,95078.00
2022-08-05T06:36:03.813Z,95080.00
2022-08-05T06:38:11.132Z,95082.00
2022-08-05T06:40:42.089Z,95084.20
2022-08-05T06:43:58.221Z,95089.40
2022-08-05T06:46:03.739Z,95099.60
2022-08-05T06:48:53.285Z,95098.80
2022-08-05T06:51:29.357Z,95102.60
2022-08-05T06:54:03.346Z,95098.00
2022-08-05T06:56:33.340Z,95101.00
2022-08-05T06:59:03.575Z,95112.20
2022-08-05T07:01:35.653Z,95117.60
2022-08-05T07:04:03.651Z,95117.40
2022-08-05T07:06:30.478Z,95126.40
2022-08-05T07:09:03.821Z,95125.40
2022-08-05T07:11:36.840Z,95122.40
2022-08-05T07:14:30.112Z,95127.80
2022-08-05T07:18:02.210Z,95131.00
2022-08-05T07:20:32.402Z,95139.40
2022-08-05T07:22:38.010Z,95144.80
2022-08-05T07:25:23.486Z,95146.60
2022-08-05T07:27:58.772Z,95160.00
2022-08-05T07:30:33.424Z,95161.80
2022-08-05T07:33:05.464Z,95165.80
2022-08-05T07:36:04.264Z,95181.00
2022-08-05T07:38:33.210Z,95180.80
2022-08-05T07:42:08.709Z,95176.20
2022-08-05T07:43:56.061Z,95181.00
2022-08-05T07:46:26.167Z,95185.20
2022-08-05T07:49:03.302Z,95187.60
2022-08-05T07:51:37.005Z,95196.60
2022-08-05T07:54:09.846Z,95198.60
2022-08-05T07:57:00.413Z,95207.00
2022-08-05T07:59:38.027Z,95213.20
2022-08-05T08:02:07.663Z,95212.60
2022-08-05T08:04:43.168Z,95205.60
2022-08-05T08:07:13.083Z,95205.00
2022-08-05T08:09:39.812Z,95205.40
2022-08-05T08:12:14.661Z,95219.60
2022-08-05T08:14:46.735Z,95213.80
2022-08-05T08:17:16.239Z,95228.00
2022-08-05T08:20:21.790Z,95228.00
2022-08-05T08:22:32.816Z,95235.00
2022-08-05T08:25:03.386Z,95242.80
2022-08-05T08:27:44.749Z,95245.60
2022-08-05T08:30:19.578Z,95255.60
2022-08-05T08:32:57.011Z,95253.20
2022-08-05T08:35:26.769Z,95260.20
2022-08-05T08:37:56.257Z,95258.00
2022-08-05T08:40:24.079Z,95252.80
2022-08-05T08:42:53.059Z,95267.60
2022-08-05T08:45:27.237Z,95271.40
2022-08-05T08:48:11.757Z,95285.00
2022-08-05T08:51:03.917Z,95281.60
2022-08-05T08:53:38.206Z,95281.40
2022-08-05T08:56:11.444Z,95290.40
2022-08-05T08:58:44.376Z,95297.00
2022-08-05T09:01:17.165Z,95292.40
2022-08-05T09:03:52.833Z,95297.00
2022-08-05T09:06:29.478Z,95298.40
2022-08-05T09:09:00.603Z,95294.20
2022-08-05T09:11:52.170Z,95302.80
2022-08-05T09:14:56.816Z,95306.00
2022-08-05T09:17:05.072Z,95315.00
2022-08-05T09:20:01.586Z,95314.40
2022-08-05T09:22:31.333Z,95314.80
2022-08-05T09:25:01.912Z,95314.60
2022-08-05T09:28:04.271Z,95316.60
2022-08-05T09:30:27.513Z,95322.60
2022-08-05T09:33:01.933Z,95327.20
2022-08-05T09:35:29.477Z,95325.00
2022-08-05T09:38:11.975Z,95334.20
2022-08-05T09:40:52.433Z,95324.60
2022-08-05T09:43:40.900Z,95328.40
2022-08-05T09:46:32.252Z,95332.00
2022-08-05T09:49:08.301Z,95327.40
2022-08-05T09:51:49.661Z,95329.00
2022-08-05T09:54:25.717Z,95328.20
2022-08-05T09:56:56.068Z,95328.60
2022-08-05T09:59:27.396Z,95327.20
2022-08-05T10:01:57.972Z,95326.40
2022-08-05T10:04:36.209Z,95328.40
2022-08-05T10:07:19.865Z,95336.20
2022-08-05T10:10:02.681Z,95331.20
2022-08-05T10:12:50.460Z,95340.80
2022-08-05T10:15:20.938Z,95339.60
2022-08-05T10:18:12.030Z,95335.00
2022-08-05T10:20:56.002Z,95335.40
2022-08-05T10:23:55.609Z,95334.60
2022-08-05T10:26:16.150Z,95341.40
2022-08-05T10:28:46.333Z,95339.80
2022-08-05T10:32:50.894Z,95346.40
2022-08-05T10:34:04.106Z,95346.40
2022-08-05T10:36:37.347Z,95344.00
2022-08-05T10:39:25.020Z,95348.60
2022-08-05T10:42:32.577Z,95344.20
2022-08-05T10:45:21.206Z,95347.40
2022-08-05T10:47:56.122Z,95344.00
2022-08-05T10:51:22.164Z,95343.20
2022-08-05T10:54:05.954Z,95345.80
2022-08-05T10:56:52.934Z,95354.00
2022-08-05T11:00:02.451Z,95344.80
2022-08-05T11:02:37.767Z,95339.40
2022-08-05T11:05:10.239Z,95338.60
2022-08-05T11:08:03.343Z,95346.40
2022-08-05T11:10:50.347Z,95336.20
2022-08-05T11:13:58.134Z,95326.40
2022-08-05T11:16:47.511Z,95331.40
2022-08-05T11:20:11.151Z,95342.20
2022-08-05T11:22:43.362Z,95333.20
2022-08-05T11:26:04.517Z,95331.00
2022-08-05T11:28:33.445Z,95324.40
2022-08-05T11:31:06.169Z,95325.80
2022-08-05T11:33:48.440Z,95318.40
2022-08-05T11:36:34.064Z,95322.00
2022-08-05T11:39:01.781Z,95318.20
2022-08-05T11:41:54.625Z,95324.00
2022-08-05T11:44:40.407Z,95318.00
2022-08-05T11:47:10.882Z,95310.60
2022-08-05T11:49:42.849Z,95318.40
2022-08-05T11:52:11.467Z,95317.60
2022-08-05T11:54:41.363Z,95310.20
2022-08-05T11:57:13.215Z,95308.40
2022-08-05T11:59:52.845Z,95300.80
2022-08-05T12:02:31.300Z,95300.60
2022-08-05T12:05:07.617Z,95298.00
2022-08-05T12:08:10.192Z,95302.40
2022-08-05T12:10:43.651Z,95298.40
2022-08-05T12:13:18.555Z,95294.20
2022-08-05T12:15:55.860Z,95294.40
2022-08-05T12:18:38.716Z,95295.40
2022-08-05T12:21:39.235Z,95293.20
2022-08-05T12:24:09.761Z,95289.40
2022-08-05T12:26:39.215Z,95285.60
2022-08-05T12:29:26.145Z,95281.80
2022-08-05T12:32:02.252Z,95283.40
2022-08-05T12:34:36.806Z,95284.00
2022-08-05T12:37:17.309Z,95283.80
2022-08-05T12:39:51.081Z,95281.80
2022-08-05T12:42:21.047Z,95275.20
2022-08-05T12:44:49.380Z,95276.80
2022-08-05T12:47:31.026Z,95274.20
2022-08-05T12:50:03.088Z,95267.80
2022-08-05T12:52:39.059Z,95268.40
2022-08-05T12:55:40.422Z,95262.40
2022-08-05T12:58:50.693Z,95261.00
2022-08-05T13:01:59.857Z,95253.20
2022-08-05T13:04:04.406Z,95248.00
2022-08-05T13:06:41.204Z,95247.20
2022-08-05T13:09:28.342Z,95253.00
2022-08-05T13:12:13.199Z,95248.20
2022-08-05T13:15:05.179Z,95253.40
2022-08-05T13:17:41.826Z,95255.40
2022-08-05T13:20:23.629Z,95256.60
2022-08-05T13:22:53.669Z,95254.80
2022-08-05T13:25:22.182Z,95251.40
2022-08-05T13:28:07.861Z,95246.20
2022-08-05T13:30:39.151Z,95248.80
2022-08-05T13:33:06.052Z,95248.00
2022-08-05T13:35:46.973Z,95250.20
2022-08-05T13:38:30.563Z,95238.40
2022-08-05T13:41:01.209Z,95233.00
2022-08-05T13:43:44.614Z,95239.00
2022-08-05T13:46:16.378Z,95236.20
2022-08-05T13:49:00.866Z,95236.20
2022-08-05T13:51:36.474Z,95235.20
2022-08-05T13:54:03.586Z,95231.80
2022-08-05T13:56:45.476Z,95229.40
2022-08-05T13:59:24.392Z,95227.60
2022-08-05T14:02:00.795Z,95226.40
2022-08-05T14:04:52.839Z,95228.00
2022-08-05T14:08:00.303Z,95220.00
2022-08-05T14:10:29.010Z,95214.60
2022-08-05T14:12:59.372Z,95213.80
2022-08-05T14:16:08.817Z,95215.60
2022-08-05T14:18:18.061Z,95204.00
2022-08-05T14:20:48.984Z,95197.60
2022-08-05T14:23:25.532Z,95196.20
2022-08-05T14:25:58.436Z,95191.40
2022-08-05T14:28:30.912Z,95187.20
2022-08-05T14:30:59.131Z,95192.80
2022-08-05T14:33:26.210Z,95182.20
2022-08-05T14:35:54.523Z,95173.20
2022-08-05T14:38:32.384Z,95171.00
2022-08-05T14:41:06.563Z,95167.20
2022-08-05T14:43:59.540Z,95162.80
2022-08-05T14:46:30.828Z,95154.00
2022-08-05T14:49:06.586Z,95148.00
2022-08-05T14:51:42.480Z,95141.00
2022-08-05T14:54:27.982Z,95135.80
2022-08-05T14:56:58.566Z,95131.80
2022-08-05T14:59:29.491Z,95132.60
2022-08-05T15:02:02.711Z,95128.60
2022-08-05T15:04:29.795Z,95126.20
2022-08-05T15:06:57.533Z,95125.80
2022-08-05T15:09:52.487Z,95133.60
2022-08-05T15:12:16.999Z,95134.80
2022-08-05T15:14:49.976Z,95145.20
2022-08-05T15:17:47.782Z,95148.60
2022-08-05T15:20:18.786Z,95149.60
2022-08-05T15:22:52.218Z,95151.80
2022-08-05T15:25:23.420Z,95153.80
2022-08-05T15:28:08.488Z,95152.20
2022-08-05T15:30:40.427Z,95157.60
2022-08-05T15:33:07.306Z,95164.60
2022-08-05T15:35:36.024Z,95168.20
2022-08-05T15:38:31.719Z,95171.60
2022-08-05T15:41:20.868Z,95171.00
2022-08-05T15:43:45.413Z,95169.60
2022-08-05T15:46:13.370Z,95168.80
2022-08-05T15:48:46.824Z,95169.20
2022-08-05T15:52:04.136Z,95171.00
2022-08-05T15:54:15.030Z,95171.40
2022-08-05T15:56:42.006Z,95162.20
2022-08-05T15:59:08.665Z,95163.40
2022-08-05T16:01:39.391Z,95163.20
2022-08-05T16:04:08.703Z,95166.80
2022-08-05T16:06:37.305Z,95165.40
2022-08-05T16:09:04.314Z,95165.00
2022-08-05T16:11:43.150Z,95167.20
2022-08-05T16:14:17.117Z,95172.00
2022-08-05T16:16:44.859Z,95172.80
2022-08-05T16:19:25.857Z,95175.00
2022-08-05T16:22:03.198Z,95176.60
2022-08-05T16:24:41.145Z,95174.60
2022-08-05T16:27:10.110Z,95170.40
2022-08-05T16:29:47.509Z,95171.00
2022-08-05T16:32:28.297Z,95172.80
2022-08-05T16:34:56.690Z,95175.60
2022-08-05T16:38:03.173Z,95175.40
2022-08-05T16:40:20.217Z,95177.40
2022-08-05T16:42:52.370Z,95177.80
2022-08-05T16:46:03.906Z,95181.00
2022-08-05T16:48:06.120Z,95179.60
2022-08-05T16:50:32.813Z,95183.80
2022-08-05T16:53:01.503Z,95185.20
2022-08-05T16:55:47.199Z,95190.60
2022-08-05T16:58:14.494Z,95191.00
2022-08-05T17:00:41.238Z,95184.40
2022-08-05T17:03:09.337Z,95183.00
2022-08-05T17:05:50.268Z,95185.20
2022-08-05T17:08:35.903Z,95184.00
2022-08-05T17:11:12.756Z,95180.80
2022-08-05T17:13:45.470Z,95184.60
2022-08-05T17:16:32.741Z,95186.00
2022-08-05T17:19:00.116Z,95189.60
2022-08-05T17:21:35.655Z,95190.20
2022-08-05T17:24:14.304Z,95190.60
2022-08-05T17:26:53.641Z,95183.80
2022-08-05T17:29:33.324Z,95187.40
2022-08-05T17:32:08.433Z,95186.20
2022-08-05T17:34:38.900Z,95188.20
2022-08-05T17:37:40.896Z,95180.20
2022-08-05T17:39:56.048Z,95186.80
2022-08-05T17:42:29.804Z,95189.00
2022-08-05T17:45:09.715Z,95185.60
2022-08-05T17:47:45.761Z,95183.80
2022-08-05T17:50:27.700Z,95182.20
2022-08-05T17:53:04.766Z,95189.60
2022-08-05T17:55:38.220Z,95187.00
2022-08-05T17:58:09.675Z,95191.40
2022-08-05T18:00:44.635Z,95197.20
2022-08-05T18:03:39.164Z,95200.40
2022-08-05T18:06:06.327Z,95202.00
2022-08-05T18:08:44.555Z,95204.60
2022-08-05T18:11:23.236Z,95201.40
2022-08-05T18:13:51.953Z,95195.20
2022-08-05T18:16:20.419Z,95199.00
2022-08-05T18:18:48.081Z,95203.40
2022-08-05T18:21:20.020Z,95204.60
2022-08-05T18:23:53.504Z,95203.00
2022-08-05T18:26:29.283Z,95203.80
2022-08-05T18:28:57.616Z,95209.80
2022-08-05T18:31:25.342Z,95207.40
2022-08-05T18:33:59.877Z,95212.40
2022-08-05T18:36:27.952Z,95214.60
2022-08-05T18:38:55.609Z,95214.60
2022-08-05T18:41:58.475Z,95221.40
2022-08-05T18:44:09.189Z,95221.00
2022-08-05T18:46:36.018Z,95221.60
2022-08-05T18:49:21.428Z,95225.40
2022-08-05T18:52:08.588Z,95229.00
2022-08-05T18:54:35.966Z,95223.20
2022-08-05T18:57:09.589Z,95218.80
2022-08-05T19:00:02.566Z,95217.80
2022-08-05T19:02:29.645Z,95221.80
2022-08-05T19:05:02.073Z,95239.00
2022-08-05T19:07:48.167Z,95259.00
2022-08-05T19:10:28.459Z,95278.20
2022-08-05T19:12:57.392Z,95298.40
2022-08-05T19:15:58.229Z,95306.80
2022-08-05T19:18:20.964Z,95319.40
2022-08-05T19:20:54.072Z,95332.20
2022-08-05T19:24:05.272Z,95344.00
2022-08-05T19:26:09.618Z,95377.00
2022-08-05T19:28:43.218Z,95400.60
2022-08-05T19:31:13.606Z,95397.40
2022-08-05T19:33:48.376Z,95415.00
2022-08-05T19:36:29.354Z,95467.20
2022-08-05T19:39:01.096Z,95482.80
2022-08-05T19:42:03.373Z,95485.20
2022-08-05T19:44:17.515Z,95484.20
2022-08-05T19:46:45.785Z,95479.60
2022-08-05T19:49:17.117Z,95473.00
2022-08-05T19:52:04.733Z,95455.60
2022-08-05T19:54:34.282Z,95444.80
2022-08-05T19:57:06.430Z,95441.20
2022-08-05T19:59:55.305Z,95428.80
2022-08-05T20:02:23.197Z,95412.80
2022-08-05T20:04:50.196Z,95404.80
2022-08-05T20:07:46.829Z,95397.80
2022-08-05T20:10:13.982Z,95385.40
2022-08-05T20:12:47.943Z,95376.60
2022-08-05T20:15:23.220Z,95366.80
2022-08-05T20:18:10.780Z,95362.20
2022-08-05T20:20:57.214Z,95367.40
2022-08-05T20:23:39.453Z,95367.60
2022-08-05T20:26:16.378Z,95368.00
2022-08-05T20:28:47.958Z,95365.00
2022-08-05T20:31:16.342Z,95370.80
2022-08-05T20:33:44.909Z,95386.00
2022-08-05T20:36:16.241Z,95382.80
2022-08-05T20:38:53.628Z,95384.80
2022-08-05T20:41:27.389Z,95382.40
2022-08-05T20:44:18.978Z,95391.20
2022-08-05T20:47:01.216Z,95412.00
2022-08-05T20:49:28.501Z,95461.00
2022-08-05T20:51:57.608Z,95465.40
2022-08-05T20:54:25.860Z,95469.80
2022-08-05T20:57:14.369Z,95481.40
2022-08-05T21:00:21.155Z,95501.60
2022-08-05T21:02:39.315Z,95522.00
2022-08-05T21:05:06.942Z,95528.20
2022-08-05T21:07:50.870Z,95532.80
2022-08-05T21:10:19.861Z,95537.20
2022-08-05T21:12:57.715Z,95536.80
2022-08-05T21:15:34.492Z,95540.60
2022-08-05T21:18:01.944Z,95543.00
2022-08-05T21:20:33.577Z,95539.40
2022-08-05T21:23:01.128Z,95545.00
2022-08-05T21:25:34.123Z,95546.20
2022-08-05T21:28:02.814Z,95546.00
2022-08-05T21:30:29.645Z,95549.60
2022-08-05T21:32:56.380Z,95565.00
2022-08-05T21:35:30.042Z,95570.80
2022-08-05T21:38:10.468Z,95575.40
2022-08-05T21:40:39.415Z,95593.60
2022-08-05T21:43:08.433Z,95602.00
2022-08-05T21:45:51.843Z,95615.40
2022-08-05T21:48:24.866Z,95606.00
2022-08-05T21:50:54.049Z,95601.80
2022-08-05T21:53:21.784Z,95606.60
2022-08-05T21:56:05.295Z,95616.00
2022-08-05T21:58:42.073Z,95628.20
2022-08-05T22:01:11.121Z,95626.00
2022-08-05T22:03:53.147Z,95631.00
2022-08-05T22:06:23.043Z,95632.00
2022-08-05T22:09:01.940Z,95637.80
2022-08-05T22:11:41.194Z,95631.40
2022-08-05T22:14:33.303Z,95623.00
2022-08-05T22:16:56.954Z,95606.20
2022-08-05T22:20:02.181Z,95603.20
2022-08-05T22:22:11.783Z,95595.60
2022-08-05T22:24:58.015Z,95599.40
2022-08-05T22:28:08.276Z,95605.60
2022-08-05T22:30:32.175Z,95613.40
2022-08-05T22:33:02.201Z,95611.40
2022-08-05T22:35:31.054Z,95625.00
2022-08-05T22:38:15.086Z,95633.00
2022-08-05T22:40:42.033Z,95626.80
2022-08-05T22:43:16.413Z,95624.00
2022-08-05T22:46:12.034Z,95616.00
2022-08-05T22:48:43.156Z,95613.00
2022-08-05T22:51:16.028Z,95617.60
2022-08-05T22:53:51.172Z,95617.60
2022-08-05T22:56:30.316Z,95636.20
2022-08-05T22:59:04.195Z,95642.40
2022-08-05T23:02:05.003Z,95646.60
2022-08-05T23:04:33.821Z,95647.80
2022-08-05T23:07:01.154Z,95643.40
2022-08-05T23:09:53.362Z,95649.80
2022-08-05T23:12:17.828Z,95644.20
2022-08-05T23:14:44.890Z,95644.80
2022-08-05T23:17:34.125Z,95653.60
2022-08-05T23:20:16.702Z,95661.80
2022-08-05T23:22:47.697Z,95652.40
2022-08-05T23:25:52.568Z,95663.60
2022-08-05T23:28:07.173Z,95663.00
2022-08-05T23:30:40.381Z,95661.40
2022-08-05T23:33:16.396Z,95653.20
2022-08-05T23:35:50.613Z,95647.80
2022-08-05T23:38:17.966Z,95654.60
2022-08-05T23:40:50.066Z,95654.60
2022-08-05T23:43:25.499Z,95658.00
2022-08-05T23:46:19.762Z,95663.60
2022-08-05T23:49:00.918Z,95665.80
2022-08-05T23:51:57.776Z,95665.20
2022-08-05T23:54:30.245Z,95672.20
2022-08-05T23:57:04.083Z,95675.00
2022-08-05T23:59:37.771Z,95682.40
